createdAt,value
2017-11-23T00:00:58.161Z,69.30
2017-11-23T00:03:26.470Z,69.60
2017-11-23T00:05:54.050Z,69.40
2017-11-23T00:08:21.594Z,69.30
2017-11-23T00:10:49.173Z,69.40
2017-11-23T00:13:16.721Z,69.40
2017-11-23T00:15:44.302Z,69.30
2017-11-23T00:18:11.849Z,69.20
2017-11-23T00:20:39.442Z,69.30
2017-11-23T00:23:06.982Z,69.40
2017-11-23T00:25:34.562Z,69.40
2017-11-23T00:28:02.105Z,69.40
2017-11-23T00:30:29.681Z,69.50
2017-11-23T00:32:57.221Z,69.50
2017-11-23T00:35:24.794Z,69.50
2017-11-23T00:37:52.350Z,69.40
2017-11-23T00:40:19.944Z,69.30
2017-11-23T00:42:48.252Z,69.30
2017-11-23T00:45:15.832Z,69.20
2017-11-23T00:47:43.372Z,69.30
2017-11-23T00:50:10.954Z,69.30
2017-11-23T00:52:54.261Z,69.30
2017-11-23T00:55:21.846Z,69.20
2017-11-23T00:57:49.381Z,69.30
2017-11-23T01:00:16.962Z,69.30
2017-11-23T01:02:44.502Z,69.40
2017-11-23T01:05:12.082Z,69.40
2017-11-23T01:07:39.614Z,69.30
2017-11-23T01:10:07.197Z,69.30
2017-11-23T01:12:34.750Z,69.20
2017-11-23T01:15:02.341Z,69.10
2017-11-23T01:17:29.884Z,69.40
2017-11-23T01:19:57.469Z,69.40
2017-11-23T01:22:31.534Z,69.40
2017-11-23T01:24:59.106Z,69.40
2017-11-23T01:27:26.639Z,69.40
2017-11-23T01:29:54.232Z,69.40
2017-11-23T01:32:21.783Z,69.40
2017-11-23T01:34:49.355Z,69.40
2017-11-23T01:37:16.898Z,69.50
2017-11-23T01:39:44.478Z,69.50
2017-11-23T01:42:12.019Z,69.60
2017-11-23T01:44:39.595Z,69.50
2017-11-23T01:47:07.141Z,69.50
2017-11-23T01:49:34.729Z,69.50
2017-11-23T01:52:02.268Z,69.50
2017-11-23T01:54:29.847Z,69.50
2017-11-23T01:56:57.393Z,69.50
2017-11-23T01:59:24.972Z,69.50
2017-11-23T02:01:52.515Z,69.50
2017-11-23T02:04:20.170Z,69.60
2017-11-23T02:06:47.749Z,69.50
2017-11-23T02:09:15.299Z,69.50
2017-11-23T02:11:42.886Z,69.40
2017-11-23T02:14:10.434Z,69.50
2017-11-23T02:16:38.021Z,70.40
2017-11-23T02:19:06.333Z,69.60
2017-11-23T02:21:33.914Z,69.60
2017-11-23T02:24:01.451Z,69.60
2017-11-23T02:26:29.026Z,69.70
2017-11-23T02:28:56.566Z,70.60
2017-11-23T02:31:24.147Z,69.80
2017-11-23T02:33:51.688Z,69.80
2017-11-23T02:36:19.265Z,69.70
2017-11-23T02:38:46.806Z,69.70
2017-11-23T02:41:14.379Z,69.70
2017-11-23T02:43:41.924Z,69.70
2017-11-23T02:46:09.499Z,69.80
2017-11-23T02:48:37.044Z,69.70
2017-11-23T02:51:04.622Z,69.80
2017-11-23T02:53:32.157Z,69.90
2017-11-23T02:55:59.747Z,69.90
2017-11-23T02:58:27.288Z,69.90
2017-11-23T03:00:54.907Z,69.80
2017-11-23T03:03:22.442Z,70.70
2017-11-23T03:05:50.019Z,69.50
2017-11-23T03:08:17.553Z,69.90
2017-11-23T03:10:45.132Z,69.70
2017-11-23T03:13:12.665Z,69.80
2017-11-23T03:15:40.243Z,69.70
2017-11-23T03:18:07.776Z,69.70
2017-11-23T03:20:35.355Z,69.50
2017-11-23T03:23:02.893Z,69.50
2017-11-23T03:25:30.467Z,69.40
2017-11-23T03:27:57.990Z,69.40
2017-11-23T03:30:25.565Z,69.40
2017-11-23T03:32:53.103Z,69.40
2017-11-23T03:35:20.686Z,69.30
2017-11-23T03:37:48.227Z,69.30
2017-11-23T03:40:16.574Z,69.20
2017-11-23T03:42:44.109Z,69.20
2017-11-23T03:45:11.755Z,69.10
2017-11-23T03:47:39.298Z,69.20
2017-11-23T03:50:06.872Z,70.00
2017-11-23T03:52:34.409Z,69.20
2017-11-23T03:55:01.986Z,69.20
2017-11-23T03:57:29.526Z,69.20
2017-11-23T03:59:57.107Z,69.20
2017-11-23T04:02:24.644Z,69.20
2017-11-23T04:04:52.217Z,69.10
2017-11-23T04:07:19.753Z,69.20
2017-11-23T04:09:48.356Z,69.20
2017-11-23T04:12:15.890Z,69.20
2017-11-23T04:14:44.226Z,69.00
2017-11-23T04:17:11.763Z,69.00
2017-11-23T04:19:39.336Z,68.90
2017-11-23T04:22:06.882Z,69.00
2017-11-23T04:24:34.453Z,68.90
2017-11-23T04:27:01.995Z,68.90
2017-11-23T04:29:29.573Z,68.90
2017-11-23T04:31:57.111Z,68.90
2017-11-23T04:34:24.694Z,68.90
2017-11-23T04:36:52.226Z,69.00
2017-11-23T04:39:19.798Z,68.90
2017-11-23T04:41:47.353Z,69.00
2017-11-23T04:44:14.929Z,69.00
2017-11-23T04:46:42.473Z,68.90
2017-11-23T04:49:10.047Z,68.90
2017-11-23T04:51:37.577Z,69.00
2017-11-23T04:54:05.932Z,68.90
2017-11-23T04:56:34.235Z,69.00
2017-11-23T04:59:01.821Z,68.90
2017-11-23T05:01:29.370Z,68.90
2017-11-23T05:03:56.948Z,68.90
2017-11-23T05:06:24.477Z,68.80
2017-11-23T05:08:52.051Z,68.80
2017-11-23T05:11:19.586Z,68.80
2017-11-23T05:13:47.927Z,68.70
2017-11-23T05:16:15.471Z,68.70
2017-11-23T05:18:43.050Z,68.80
2017-11-23T05:21:10.594Z,68.70
2017-11-23T05:23:38.174Z,68.60
2017-11-23T05:26:05.710Z,68.80
2017-11-23T05:28:33.286Z,68.80
2017-11-23T05:31:00.823Z,68.70
2017-11-23T05:33:28.397Z,68.60
2017-11-23T05:35:55.939Z,68.60
2017-11-23T05:38:23.511Z,68.70
2017-11-23T05:40:51.051Z,68.60
2017-11-23T05:43:18.627Z,68.60
2017-11-23T05:45:46.166Z,68.70
2017-11-23T05:48:13.744Z,68.60
2017-11-23T05:50:41.279Z,68.70
2017-11-23T05:53:09.363Z,68.70
2017-11-23T05:55:36.917Z,68.60
2017-11-23T05:58:04.690Z,68.50
2017-11-23T06:00:32.253Z,69.40
2017-11-23T06:02:59.842Z,68.60
2017-11-23T06:05:27.382Z,68.70
2017-11-23T06:07:54.957Z,68.70
2017-11-23T06:10:22.519Z,68.70
2017-11-23T06:12:50.144Z,68.60
2017-11-23T06:15:17.749Z,68.70
2017-11-23T06:17:45.365Z,68.60
2017-11-23T06:20:13.041Z,69.10
2017-11-23T06:22:40.802Z,68.80
2017-11-23T06:25:09.151Z,68.80
2017-11-23T06:27:36.774Z,68.80
2017-11-23T06:30:04.358Z,68.80
2017-11-23T06:32:32.721Z,68.90
2017-11-23T06:35:01.047Z,68.90
2017-11-23T06:37:28.633Z,68.70
2017-11-23T06:39:56.169Z,68.90
2017-11-23T06:42:23.747Z,68.90
2017-11-23T06:44:51.288Z,68.90
2017-11-23T06:47:18.861Z,68.90
2017-11-23T06:49:46.393Z,68.90
2017-11-23T06:52:13.963Z,68.90
2017-11-23T06:54:41.497Z,68.90
2017-11-23T06:57:09.832Z,69.00
2017-11-23T06:59:37.365Z,68.90
2017-11-23T07:02:04.942Z,68.90
2017-11-23T07:04:32.478Z,69.00
2017-11-23T07:07:00.051Z,68.90
2017-11-23T07:09:27.589Z,69.00
2017-11-23T07:11:55.162Z,69.00
2017-11-23T07:14:22.701Z,69.00
2017-11-23T07:16:50.281Z,69.00
2017-11-23T07:19:17.827Z,68.90
2017-11-23T07:21:45.410Z,68.90
2017-11-23T07:24:12.938Z,68.90
2017-11-23T07:26:40.520Z,69.80
2017-11-23T07:29:08.067Z,69.00
2017-11-23T07:31:35.686Z,69.90
2017-11-23T07:34:03.218Z,69.20
2017-11-23T07:36:30.913Z,69.30
2017-11-23T07:38:59.222Z,69.40
2017-11-23T07:41:26.817Z,69.40
2017-11-23T07:43:54.415Z,69.50
2017-11-23T07:46:22.774Z,69.40
2017-11-23T07:48:50.319Z,69.40
2017-11-23T07:51:17.896Z,69.30
2017-11-23T07:53:45.437Z,69.40
2017-11-23T07:56:13.015Z,69.10
2017-11-23T07:58:40.554Z,68.60
2017-11-23T08:01:08.139Z,68.20
2017-11-23T08:03:35.696Z,67.80
2017-11-23T08:06:03.269Z,67.70
2017-11-23T08:08:31.570Z,67.60
2017-11-23T08:10:59.176Z,67.40
2017-11-23T08:13:26.737Z,67.40
2017-11-23T08:15:54.339Z,67.30
2017-11-23T08:18:22.689Z,67.40
2017-11-23T08:20:50.260Z,67.40
2017-11-23T08:23:17.794Z,67.60
2017-11-23T08:25:45.372Z,68.60
2017-11-23T08:28:12.907Z,68.30
2017-11-23T08:30:40.476Z,68.80
2017-11-23T08:33:08.013Z,69.10
2017-11-23T08:35:35.591Z,69.30
2017-11-23T08:38:03.168Z,69.60
2017-11-23T08:40:30.716Z,69.50
2017-11-23T08:42:58.329Z,69.50
2017-11-23T08:45:25.993Z,69.40
2017-11-23T08:47:53.594Z,69.40
2017-11-23T08:50:21.137Z,69.30
2017-11-23T08:52:48.724Z,69.40
2017-11-23T08:55:16.275Z,69.10
2017-11-23T08:57:43.854Z,69.50
2017-11-23T09:00:11.437Z,69.30
2017-11-23T09:02:39.775Z,69.30
2017-11-23T09:05:07.310Z,69.20
2017-11-23T09:07:34.973Z,69.20
2017-11-23T09:10:02.515Z,69.20
2017-11-23T09:12:45.843Z,69.10
2017-11-23T09:15:13.390Z,68.60
2017-11-23T09:17:40.960Z,68.60
2017-11-23T09:20:08.493Z,68.30
2017-11-23T09:22:36.866Z,67.60
2017-11-23T09:25:05.175Z,66.90
2017-11-23T09:27:32.754Z,66.70
2017-11-23T09:30:00.291Z,65.60
2017-11-23T09:32:27.873Z,64.80
2017-11-23T09:34:55.421Z,64.60
2017-11-23T09:37:22.996Z,64.20
2017-11-23T09:39:50.538Z,63.80
2017-11-23T09:42:18.131Z,63.90
2017-11-23T09:44:45.681Z,63.90
2017-11-23T09:47:13.437Z,64.10
2017-11-23T09:49:40.982Z,64.40
2017-11-23T09:52:08.558Z,64.30
2017-11-23T09:54:36.101Z,63.80
2017-11-23T09:57:03.691Z,63.50
2017-11-23T09:59:31.289Z,62.80
2017-11-23T10:01:59.595Z,62.30
2017-11-23T10:04:27.133Z,62.20
2017-11-23T10:06:55.482Z,61.40
2017-11-23T10:09:23.035Z,61.40
2017-11-23T10:11:50.629Z,61.30
2017-11-23T10:14:24.702Z,61.90
2017-11-23T10:16:52.279Z,61.70
2017-11-23T10:19:19.867Z,61.00
2017-11-23T10:21:48.170Z,58.90
2017-11-23T10:24:15.723Z,58.90
2017-11-23T10:26:43.310Z,58.30
2017-11-23T10:29:10.861Z,58.60
2017-11-23T10:31:38.442Z,58.90
2017-11-23T10:34:06.006Z,58.70
2017-11-23T10:36:33.607Z,59.20
2017-11-23T10:39:01.157Z,60.20
2017-11-23T10:41:29.511Z,61.20
2017-11-23T10:43:57.051Z,61.20
2017-11-23T10:46:24.638Z,61.50
2017-11-23T10:48:52.185Z,61.90
2017-11-23T10:51:19.770Z,62.00
2017-11-23T10:53:48.093Z,62.70
2017-11-23T10:56:15.682Z,62.70
2017-11-23T10:58:43.229Z,62.80
2017-11-23T11:01:10.811Z,62.80
2017-11-23T11:03:38.374Z,62.80
2017-11-23T11:06:06.004Z,62.60
2017-11-23T11:08:33.549Z,62.30
2017-11-23T11:11:01.122Z,62.00
2017-11-23T11:13:28.677Z,61.40
2017-11-23T11:15:56.267Z,61.80
2017-11-23T11:18:23.815Z,62.30
2017-11-23T11:20:51.394Z,63.00
2017-11-23T11:23:18.937Z,62.90
2017-11-23T11:25:46.517Z,63.00
2017-11-23T11:28:14.834Z,63.20
2017-11-23T11:30:42.418Z,63.10
2017-11-23T11:33:09.966Z,63.20
2017-11-23T11:35:37.547Z,63.80
2017-11-23T11:38:05.091Z,63.90
2017-11-23T11:40:32.671Z,63.60
2017-11-23T11:43:00.214Z,63.30
2017-11-23T11:45:27.789Z,63.60
2017-11-23T11:47:55.329Z,63.80
2017-11-23T11:50:22.908Z,63.40
2017-11-23T11:52:50.757Z,62.50
2017-11-23T11:55:18.350Z,62.10
2017-11-23T11:57:45.902Z,61.50
2017-11-23T12:00:13.491Z,61.70
2017-11-23T12:02:41.803Z,60.70
2017-11-23T12:05:09.380Z,60.70
2017-11-23T12:07:36.913Z,60.40
2017-11-23T12:10:04.490Z,59.90
2017-11-23T12:12:32.026Z,59.80
2017-11-23T12:15:06.451Z,58.70
2017-11-23T12:17:45.903Z,58.80
2017-11-23T12:20:16.246Z,58.60
2017-11-23T12:25:58.476Z,56.90
2017-11-23T12:28:49.182Z,57.50
2017-11-23T12:31:16.722Z,58.90
2017-11-23T12:33:44.298Z,59.70
2017-11-23T12:36:11.850Z,59.20
2017-11-23T12:38:39.392Z,59.40
2017-11-23T12:41:06.985Z,60.20
2017-11-23T12:43:34.519Z,60.90
2017-11-23T12:46:02.097Z,60.70
2017-11-23T12:48:29.683Z,57.50
2017-11-23T12:50:57.217Z,52.50
2017-11-23T12:53:24.863Z,51.50
2017-11-23T12:55:52.447Z,53.40
2017-11-23T12:58:19.976Z,55.80
2017-11-23T13:00:47.557Z,57.20
2017-11-23T13:03:15.122Z,56.90
2017-11-23T13:05:42.693Z,57.40
2017-11-23T13:08:10.236Z,57.60
2017-11-23T13:10:37.811Z,57.80
2017-11-23T13:13:05.351Z,58.10
2017-11-23T13:15:32.939Z,57.80
2017-11-23T13:18:00.483Z,58.20
2017-11-23T13:20:28.058Z,58.00
2017-11-23T13:22:55.594Z,58.10
2017-11-23T13:25:23.165Z,58.50
2017-11-23T13:27:50.704Z,58.30
2017-11-23T13:30:18.364Z,58.30
2017-11-23T13:32:45.909Z,58.40
2017-11-23T13:35:13.502Z,58.30
2017-11-23T13:37:41.039Z,58.30
2017-11-23T13:40:08.630Z,58.40
2017-11-23T13:42:36.186Z,58.40
2017-11-23T13:45:03.776Z,58.80
2017-11-23T13:47:32.136Z,58.90
2017-11-23T13:49:59.676Z,58.90
2017-11-23T13:52:27.218Z,58.80
2017-11-23T13:54:54.794Z,59.10
2017-11-23T13:57:22.336Z,59.30
2017-11-23T13:59:49.917Z,59.40
2017-11-23T14:02:17.461Z,59.70
2017-11-23T14:04:45.121Z,59.60
2017-11-23T14:07:12.665Z,59.60
2017-11-23T14:09:40.238Z,59.50
2017-11-23T14:12:07.773Z,59.60
2017-11-23T14:14:35.352Z,59.60
2017-11-23T14:17:02.900Z,59.30
2017-11-23T14:19:30.997Z,59.00
2017-11-23T14:21:58.654Z,59.10
2017-11-23T14:24:26.233Z,59.20
2017-11-23T14:26:53.772Z,59.10
2017-11-23T14:29:21.355Z,58.90
2017-11-23T14:31:48.904Z,59.10
2017-11-23T14:34:16.528Z,59.10
2017-11-23T14:36:44.077Z,59.30
2017-11-23T14:39:12.422Z,59.50
2017-11-23T14:41:39.962Z,59.40
2017-11-23T14:44:08.652Z,59.90
2017-11-23T14:46:36.299Z,59.40
2017-11-23T14:49:03.875Z,59.60
2017-11-23T14:51:31.521Z,59.80
2017-11-23T14:53:59.098Z,59.70
2017-11-23T14:56:26.633Z,59.50
2017-11-23T14:58:54.206Z,59.30
2017-11-23T15:01:21.747Z,60.20
2017-11-23T15:03:49.325Z,59.80
2017-11-23T15:06:16.859Z,59.60
2017-11-23T15:08:44.434Z,60.00
2017-11-23T15:11:11.978Z,60.60
2017-11-23T15:13:39.558Z,60.80
2017-11-23T15:16:07.099Z,61.00
2017-11-23T15:18:34.677Z,61.30
2017-11-23T15:21:02.213Z,61.50
2017-11-23T15:23:29.800Z,62.20
2017-11-23T15:25:57.335Z,62.10
2017-11-23T15:28:25.019Z,61.80
2017-11-23T15:30:52.579Z,62.10
2017-11-23T15:33:20.154Z,61.90
2017-11-23T15:35:47.684Z,62.30
2017-11-23T15:38:15.257Z,61.80
2017-11-23T15:40:42.801Z,61.90
2017-11-23T15:43:10.388Z,61.70
2017-11-23T15:45:37.925Z,61.40
2017-11-23T15:48:05.505Z,61.10
2017-11-23T15:50:33.043Z,61.10
2017-11-23T15:53:00.632Z,60.00
2017-11-23T15:55:28.165Z,60.40
2017-11-23T15:57:55.743Z,60.50
2017-11-23T16:00:23.273Z,60.20
2017-11-23T16:02:50.842Z,59.80
2017-11-23T16:05:18.384Z,59.50
2017-11-23T16:07:46.759Z,59.80
2017-11-23T16:10:15.070Z,58.80
2017-11-23T16:12:42.647Z,58.70
2017-11-23T16:15:10.180Z,59.00
2017-11-23T16:17:37.754Z,59.80
2017-11-23T16:20:05.288Z,59.30
2017-11-23T16:22:32.863Z,59.10
2017-11-23T16:25:00.397Z,59.40
2017-11-23T16:27:28.733Z,60.40
2017-11-23T16:29:56.271Z,60.40
2017-11-23T16:32:23.842Z,60.40
2017-11-23T16:34:51.400Z,61.30
2017-11-23T16:37:21.424Z,60.80
2017-11-23T16:40:03.876Z,61.30
2017-11-23T16:42:47.057Z,61.70
2017-11-23T16:45:20.424Z,61.60
2017-11-23T16:47:53.595Z,61.60
2017-11-23T16:50:39.722Z,61.60
2017-11-23T16:53:12.933Z,61.60
2017-11-23T16:55:46.397Z,61.90
2017-11-23T16:58:31.672Z,61.70
2017-11-23T17:01:04.883Z,62.00
2017-11-23T17:03:38.017Z,62.00
2017-11-23T17:06:11.390Z,62.40
2017-11-23T17:08:44.665Z,62.50
2017-11-23T17:11:17.940Z,62.20
2017-11-23T17:13:51.276Z,62.40
2017-11-23T17:16:33.733Z,62.50
2017-11-23T17:19:02.104Z,62.80
2017-11-23T17:21:30.447Z,62.90
2017-11-23T17:23:58.025Z,62.90
2017-11-23T17:26:26.382Z,63.20
2017-11-23T17:28:53.921Z,63.20
2017-11-23T17:31:21.548Z,63.20
2017-11-23T17:33:49.088Z,63.10
2017-11-23T17:36:17.432Z,63.20
2017-11-23T17:38:44.969Z,63.10
2017-11-23T17:41:12.549Z,63.20
2017-11-23T17:43:40.092Z,63.20
2017-11-23T17:46:07.678Z,63.00
2017-11-23T17:48:35.280Z,63.00
2017-11-23T17:51:02.860Z,63.20
2017-11-23T17:53:30.435Z,63.10
2017-11-23T17:55:58.027Z,63.20
2017-11-23T17:58:25.645Z,63.20
2017-11-23T18:00:53.224Z,63.40
2017-11-23T18:03:20.789Z,63.40
2017-11-23T18:05:48.326Z,63.60
2017-11-23T18:08:15.953Z,63.60
2017-11-23T18:10:44.295Z,64.10
2017-11-23T18:13:11.916Z,64.00
2017-11-23T18:15:39.456Z,64.00
2017-11-23T18:18:07.798Z,64.20
2017-11-23T18:20:35.335Z,64.90
2017-11-23T18:23:02.952Z,64.00
2017-11-23T18:25:31.300Z,64.30
2017-11-23T18:27:58.886Z,64.20
2017-11-23T18:30:27.231Z,64.40
2017-11-23T18:32:54.827Z,64.40
2017-11-23T18:35:23.256Z,64.60
2017-11-23T18:37:50.885Z,64.60
2017-11-23T18:40:18.424Z,64.70
2017-11-23T18:42:46.775Z,64.90
2017-11-23T18:45:14.350Z,64.90
2017-11-23T18:47:41.950Z,64.90
2017-11-23T18:50:09.548Z,65.00
2017-11-23T18:52:37.126Z,65.10
2017-11-23T18:55:04.709Z,65.20
2017-11-23T18:57:33.056Z,65.40
2017-11-23T19:00:01.569Z,65.50
2017-11-23T19:02:29.922Z,65.50
2017-11-23T19:04:57.549Z,65.50
2017-11-23T19:07:25.083Z,65.50
2017-11-23T19:09:53.513Z,65.60
2017-11-23T19:12:21.091Z,65.70
2017-11-23T19:14:48.666Z,65.80
2017-11-23T19:17:17.015Z,65.80
2017-11-23T19:19:44.599Z,65.70
2017-11-23T19:22:12.910Z,65.80
2017-11-23T19:24:40.533Z,65.80
2017-11-23T19:27:08.835Z,66.10
2017-11-23T19:29:36.467Z,66.00
2017-11-23T19:32:04.059Z,66.10
2017-11-23T19:34:31.687Z,65.90
2017-11-23T19:36:59.423Z,66.10
2017-11-23T19:39:27.183Z,66.10
2017-11-23T19:41:54.947Z,66.00
2017-11-23T19:44:22.610Z,66.20
2017-11-23T19:46:50.205Z,66.00
2017-11-23T19:49:17.958Z,65.90
2017-11-23T19:51:45.544Z,66.40
2017-11-23T19:54:13.941Z,66.10
2017-11-23T19:56:41.539Z,66.20
2017-11-23T19:59:09.167Z,66.20
2017-11-23T20:01:36.738Z,66.10
2017-11-23T20:04:04.325Z,66.60
2017-11-23T20:06:31.908Z,65.60
2017-11-23T20:08:59.640Z,65.80
2017-11-23T20:11:27.246Z,65.70
2017-11-23T20:13:55.640Z,65.30
2017-11-23T20:16:23.993Z,65.20
2017-11-23T20:18:51.635Z,65.20
2017-11-23T20:21:19.212Z,65.30
2017-11-23T20:23:46.918Z,65.10
2017-11-23T20:26:14.517Z,65.20
2017-11-23T20:28:42.153Z,65.00
2017-11-23T20:31:09.733Z,65.00
2017-11-23T20:33:37.387Z,65.00
2017-11-23T20:36:04.973Z,65.00
2017-11-23T20:38:32.606Z,64.90
2017-11-23T20:41:00.273Z,64.70
2017-11-23T20:43:27.899Z,64.70
2017-11-23T20:45:55.486Z,64.50
2017-11-23T20:48:23.112Z,64.60
2017-11-23T20:50:50.666Z,64.60
2017-11-23T20:53:19.057Z,64.70
2017-11-23T20:55:46.657Z,64.70
2017-11-23T20:58:14.288Z,64.70
2017-11-23T21:00:41.883Z,64.60
2017-11-23T21:03:09.508Z,64.50
2017-11-23T21:05:37.052Z,64.60
2017-11-23T21:08:04.689Z,64.70
2017-11-23T21:10:32.283Z,64.80
2017-11-23T21:12:59.909Z,64.90
2017-11-23T21:15:27.500Z,64.90
2017-11-23T21:17:55.124Z,65.10
2017-11-23T21:20:22.714Z,65.10
2017-11-23T21:22:51.113Z,65.10
2017-11-23T21:25:18.696Z,65.10
2017-11-23T21:27:46.333Z,65.20
2017-11-23T21:30:13.919Z,65.20
2017-11-23T21:32:41.569Z,65.20
2017-11-23T21:35:09.174Z,65.30
2017-11-23T21:37:36.807Z,65.30
2017-11-23T21:40:04.396Z,65.30
2017-11-23T21:42:32.039Z,65.40
2017-11-23T21:44:59.581Z,65.40
2017-11-23T21:47:27.164Z,65.40
2017-11-23T21:49:54.743Z,65.40
2017-11-23T21:52:22.367Z,65.50
2017-11-23T21:54:49.954Z,65.40
2017-11-23T21:57:17.593Z,65.50
2017-11-23T21:59:45.174Z,65.70
2017-11-23T22:02:12.919Z,65.60
2017-11-23T22:04:40.461Z,65.60
2017-11-23T22:07:08.084Z,65.60
2017-11-23T22:09:36.446Z,65.70
2017-11-23T22:12:04.802Z,66.00
2017-11-23T22:14:32.380Z,65.70
2017-11-23T22:16:59.962Z,65.60
2017-11-23T22:19:28.310Z,65.80
2017-11-23T22:21:55.914Z,65.70
2017-11-23T22:24:24.645Z,65.70
2017-11-23T22:26:52.229Z,65.80
2017-11-23T22:29:19.820Z,65.80
2017-11-23T22:31:48.123Z,65.90
2017-11-23T22:34:15.711Z,65.80
2017-11-23T22:36:43.465Z,65.90
2017-11-23T22:39:11.041Z,65.90
2017-11-23T22:41:38.578Z,66.00
2017-11-23T22:44:06.159Z,66.00
2017-11-23T22:46:33.736Z,66.00
2017-11-23T22:49:01.362Z,66.00
2017-11-23T22:51:28.945Z,66.10
2017-11-23T22:53:56.587Z,66.20
2017-11-23T22:56:24.121Z,66.00
2017-11-23T22:58:51.748Z,66.10
2017-11-23T23:01:19.295Z,66.10
2017-11-23T23:03:46.911Z,66.10
2017-11-23T23:06:14.466Z,66.20
2017-11-23T23:08:42.104Z,66.00
2017-11-23T23:11:10.405Z,66.30
2017-11-23T23:13:37.986Z,66.20
2017-11-23T23:16:05.531Z,66.30
2017-11-23T23:18:33.111Z,66.20
2017-11-23T23:21:00.659Z,66.90
2017-11-23T23:23:28.235Z,66.10
2017-11-23T23:25:55.782Z,66.10
2017-11-23T23:28:23.368Z,66.10
2017-11-23T23:30:50.956Z,66.10
2017-11-23T23:33:19.387Z,66.30
2017-11-23T23:35:46.970Z,66.20
2017-11-23T23:38:16.062Z,66.40
2017-11-23T23:40:43.595Z,66.40
2017-11-23T23:43:11.208Z,66.40
2017-11-23T23:45:39.515Z,66.60
2017-11-23T23:48:07.093Z,66.50
2017-11-23T23:50:34.628Z,66.60
2017-11-23T23:53:02.208Z,66.50
2017-11-23T23:55:29.759Z,66.40
2017-11-23T23:57:57.341Z,66.40
